sensor_id;sensor_type;location;lat;lon;timestamp;pressure;altitude;pressure_sealevel;temperature;humidity
71964;BME280;59834;52.124;5.422;2023-02-13T00:00:17;103851.34;;;6.51;85.62
71964;BME280;59834;52.124;5.422;2023-02-13T00:02:44;103853.06;;;6.49;86.37
71964;BME280;59834;52.124;5.422;2023-02-13T00:05:10;103860.03;;;6.49;86.04
71964;BME280;59834;52.124;5.422;2023-02-13T00:07:37;103858.28;;;6.48;85.59
71964;BME280;59834;52.124;5.422;2023-02-13T00:10:04;103859.16;;;6.45;85.65
71964;BME280;59834;52.124;5.422;2023-02-13T00:12:31;103851.34;;;6.45;86.05
71964;BME280;59834;52.124;5.422;2023-02-13T00:14:57;103847.88;;;6.46;85.57
71964;BME280;59834;52.124;5.422;2023-02-13T00:17:24;103851.34;;;6.48;85.98
71964;BME280;59834;52.124;5.422;2023-02-13T00:19:51;103856.56;;;6.48;86.39
71964;BME280;59834;52.124;5.422;2023-02-13T00:22:17;103850.47;;;6.48;86.08
71964;BME280;59834;52.124;5.422;2023-02-13T00:24:44;103849.63;;;6.47;86.16
71964;BME280;59834;52.124;5.422;2023-02-13T00:27:10;103848.75;;;6.48;86.44
71964;BME280;59834;52.124;5.422;2023-02-13T00:29:37;103845.25;;;6.46;86.00
71964;BME280;59834;52.124;5.422;2023-02-13T00:32:03;103846.13;;;6.45;86.16
71964;BME280;59834;52.124;5.422;2023-02-13T00:34:30;103844.41;;;6.44;86.04
71964;BME280;59834;52.124;5.422;2023-02-13T00:36:57;103839.22;;;6.44;86.10
71964;BME280;59834;52.124;5.422;2023-02-13T00:39:23;103840.94;;;6.45;86.08
71964;BME280;59834;52.124;5.422;2023-02-13T00:41:50;103843.53;;;6.45;86.28
71964;BME280;59834;52.124;5.422;2023-02-13T00:44:16;103844.41;;;6.44;86.02
71964;BME280;59834;52.124;5.422;2023-02-13T00:46:43;103838.31;;;6.42;86.50
71964;BME280;59834;52.124;5.422;2023-02-13T00:49:09;103834.84;;;6.43;86.06
71964;BME280;59834;52.124;5.422;2023-02-13T00:51:36;103836.59;;;6.43;86.28
71964;BME280;59834;52.124;5.422;2023-02-13T00:54:02;103827.94;;;6.41;86.35
71964;BME280;59834;52.124;5.422;2023-02-13T00:56:29;103833.13;;;6.37;86.65
71964;BME280;59834;52.124;5.422;2023-02-13T00:58:55;103829.63;;;6.37;86.08
71964;BME280;59834;52.124;5.422;2023-02-13T01:01:22;103836.56;;;6.36;86.70
71964;BME280;59834;52.124;5.422;2023-02-13T01:03:48;103832.22;;;6.37;86.59
71964;BME280;59834;52.124;5.422;2023-02-13T01:06:15;103835.69;;;6.36;86.83
71964;BME280;59834;52.124;5.422;2023-02-13T01:08:41;103832.25;;;6.35;87.39
71964;BME280;59834;52.124;5.422;2023-02-13T01:11:08;103834.84;;;6.35;86.48
71964;BME280;59834;52.124;5.422;2023-02-13T01:13:35;103833.97;;;6.35;87.30
71964;BME280;59834;52.124;5.422;2023-02-13T01:16:01;103833.97;;;6.35;86.91
71964;BME280;59834;52.124;5.422;2023-02-13T01:18:28;103833.09;;;6.33;86.68
71964;BME280;59834;52.124;5.422;2023-02-13T01:21:03;103832.25;;;6.34;86.83
71964;BME280;59834;52.124;5.422;2023-02-13T01:23:35;103832.25;;;6.34;86.82
71964;BME280;59834;52.124;5.422;2023-02-13T01:26:03;103832.25;;;6.35;86.98
71964;BME280;59834;52.124;5.422;2023-02-13T01:28:30;103828.78;;;6.35;87.09
71964;BME280;59834;52.124;5.422;2023-02-13T01:30:57;103826.16;;;6.35;87.19
71964;BME280;59834;52.124;5.422;2023-02-13T01:33:26;103833.09;;;6.33;87.13
71964;BME280;59834;52.124;5.422;2023-02-13T01:35:53;103825.28;;;6.33;86.94
71964;BME280;59834;52.124;5.422;2023-02-13T01:38:20;103823.56;;;6.32;86.96
71964;BME280;59834;52.124;5.422;2023-02-13T01:40:47;103827.03;;;6.31;86.76
71964;BME280;59834;52.124;5.422;2023-02-13T01:43:14;103826.16;;;6.29;87.24
71964;BME280;59834;52.124;5.422;2023-02-13T01:45:43;103826.16;;;6.27;87.34
71964;BME280;59834;52.124;5.422;2023-02-13T01:48:22;103824.41;;;6.29;87.76
71964;BME280;59834;52.124;5.422;2023-02-13T01:50:55;103814.88;;;6.30;87.76
71964;BME280;59834;52.124;5.422;2023-02-13T01:53:27;103814.88;;;6.30;87.25
71964;BME280;59834;52.124;5.422;2023-02-13T01:56:07;103818.34;;;6.29;87.32
71964;BME280;59834;52.124;5.422;2023-02-13T01:58:38;103814.03;;;6.28;87.70
71964;BME280;59834;52.124;5.422;2023-02-13T02:01:07;103814.88;;;6.27;87.86
71964;BME280;59834;52.124;5.422;2023-02-13T02:06:27;103818.34;;;6.24;87.94
71964;BME280;59834;52.124;5.422;2023-02-13T02:08:59;103810.53;;;6.24;87.48
71964;BME280;59834;52.124;5.422;2023-02-13T02:14:12;103806.19;;;6.23;87.66
71964;BME280;59834;52.124;5.422;2023-02-13T02:16:38;103807.94;;;6.23;88.02
71964;BME280;59834;52.124;5.422;2023-02-13T02:19:21;103805.31;;;6.23;88.03
71964;BME280;59834;52.124;5.422;2023-02-13T02:36:35;103811.38;;;6.19;88.19
71964;BME280;59834;52.124;5.422;2023-02-13T02:39:29;103809.66;;;6.18;88.12
71964;BME280;59834;52.124;5.422;2023-02-13T02:45:37;103805.31;;;6.15;88.07
71964;BME280;59834;52.124;5.422;2023-02-13T02:51:20;103800.97;;;6.16;88.49
71964;BME280;59834;52.124;5.422;2023-02-13T02:57:03;103791.44;;;6.16;88.55
71964;BME280;59834;52.124;5.422;2023-02-13T02:59:33;103797.50;;;6.13;88.50
71964;BME280;59834;52.124;5.422;2023-02-13T03:02:39;103796.66;;;6.14;88.99
71964;BME280;59834;52.124;5.422;2023-02-13T03:05:29;103799.25;;;6.11;88.87
71964;BME280;59834;52.124;5.422;2023-02-13T03:08:16;103792.31;;;6.10;88.56
71964;BME280;59834;52.124;5.422;2023-02-13T03:11:03;103792.31;;;6.12;88.42
71964;BME280;59834;52.124;5.422;2023-02-13T03:13:48;103793.19;;;6.11;88.83
71964;BME280;59834;52.124;5.422;2023-02-13T03:16:18;103794.03;;;6.13;89.10
71964;BME280;59834;52.124;5.422;2023-02-13T03:19:05;103796.66;;;6.14;88.46
71964;BME280;59834;52.124;5.422;2023-02-13T03:22:05;103797.50;;;6.13;88.76
71964;BME280;59834;52.124;5.422;2023-02-13T03:25:10;103794.88;;;6.13;88.90
71964;BME280;59834;52.124;5.422;2023-02-13T03:30:39;103798.38;;;6.16;88.33
71964;BME280;59834;52.124;5.422;2023-02-13T03:36:03;103800.13;;;6.15;88.47
71964;BME280;59834;52.124;5.422;2023-02-13T03:39:11;103797.50;;;6.12;88.79
71964;BME280;59834;52.124;5.422;2023-02-13T03:41:50;103801.84;;;6.11;88.46
71964;BME280;59834;52.124;5.422;2023-02-13T03:44:43;103792.31;;;6.12;88.57
71964;BME280;59834;52.124;5.422;2023-02-13T03:47:11;103795.75;;;6.12;88.74
71964;BME280;59834;52.124;5.422;2023-02-13T03:49:43;103797.50;;;6.13;88.72
71964;BME280;59834;52.124;5.422;2023-02-13T03:52:53;103791.44;;;6.11;88.84
71964;BME280;59834;52.124;5.422;2023-02-13T03:55:26;103796.63;;;6.11;88.84
71964;BME280;59834;52.124;5.422;2023-02-13T03:58:23;103796.63;;;6.13;89.52
71964;BME280;59834;52.124;5.422;2023-02-13T04:01:12;103799.25;;;6.11;89.32
71964;BME280;59834;52.124;5.422;2023-02-13T04:06:31;103794.88;;;6.13;89.84
71964;BME280;59834;52.124;5.422;2023-02-13T04:09:00;103788.81;;;6.13;89.58
71964;BME280;59834;52.124;5.422;2023-02-13T04:11:55;103792.31;;;6.10;89.53
71964;BME280;59834;52.124;5.422;2023-02-13T04:14:34;103786.22;;;6.10;89.23
71964;BME280;59834;52.124;5.422;2023-02-13T04:17:09;103787.13;;;6.10;89.24
71964;BME280;59834;52.124;5.422;2023-02-13T04:19:37;103785.34;;;6.09;89.77
71964;BME280;59834;52.124;5.422;2023-02-13T04:22:04;103790.56;;;6.08;89.16
71964;BME280;59834;52.124;5.422;2023-02-13T04:24:30;103791.41;;;6.10;89.93
71964;BME280;59834;52.124;5.422;2023-02-13T04:26:57;103795.75;;;6.09;89.16
71964;BME280;59834;52.124;5.422;2023-02-13T04:29:25;103786.22;;;6.08;89.45
71964;BME280;59834;52.124;5.422;2023-02-13T04:31:51;103790.56;;;6.08;89.31
71964;BME280;59834;52.124;5.422;2023-02-13T04:34:18;103787.09;;;6.04;89.73
71964;BME280;59834;52.124;5.422;2023-02-13T04:36:45;103793.16;;;6.06;89.55
71964;BME280;59834;52.124;5.422;2023-02-13T04:39:11;103787.09;;;6.07;89.87
71964;BME280;59834;52.124;5.422;2023-02-13T04:41:38;103791.41;;;6.05;89.56
71964;BME280;59834;52.124;5.422;2023-02-13T04:44:04;103795.75;;;6.05;89.59
71964;BME280;59834;52.124;5.422;2023-02-13T04:46:31;103791.41;;;6.05;89.95
71964;BME280;59834;52.124;5.422;2023-02-13T04:48:57;103783.59;;;6.02;90.03
71964;BME280;59834;52.124;5.422;2023-02-13T04:51:24;103788.81;;;6.02;90.13
71964;BME280;59834;52.124;5.422;2023-02-13T04:53:50;103791.44;;;6.04;89.93
71964;BME280;59834;52.124;5.422;2023-02-13T04:56:17;103785.34;;;6.03;90.32
71964;BME280;59834;52.124;5.422;2023-02-13T04:58:45;103779.28;;;6.04;90.33
71964;BME280;59834;52.124;5.422;2023-02-13T05:01:13;103773.22;;;6.04;90.18
71964;BME280;59834;52.124;5.422;2023-02-13T05:03:40;103776.69;;;6.04;90.89
71964;BME280;59834;52.124;5.422;2023-02-13T05:06:07;103769.75;;;6.02;90.86
71964;BME280;59834;52.124;5.422;2023-02-13T05:08:34;103764.56;;;6.00;91.28
71964;BME280;59834;52.124;5.422;2023-02-13T05:11:00;103770.59;;;5.99;91.20
71964;BME280;59834;52.124;5.422;2023-02-13T05:13:27;103768.84;;;6.00;91.05
71964;BME280;59834;52.124;5.422;2023-02-13T05:15:53;103760.19;;;5.99;91.03
71964;BME280;59834;52.124;5.422;2023-02-13T05:18:20;103757.59;;;5.99;91.39
71964;BME280;59834;52.124;5.422;2023-02-13T05:20:46;103765.41;;;5.99;91.41
71964;BME280;59834;52.124;5.422;2023-02-13T05:23:33;103761.91;;;5.96;91.63
71964;BME280;59834;52.124;5.422;2023-02-13T05:25:59;103756.72;;;5.94;91.11
71964;BME280;59834;52.124;5.422;2023-02-13T05:28:26;103754.97;;;5.93;91.82
71964;BME280;59834;52.124;5.422;2023-02-13T05:31:11;103760.19;;;5.95;91.48
71964;BME280;59834;52.124;5.422;2023-02-13T05:33:38;103752.41;;;5.95;91.58
71964;BME280;59834;52.124;5.422;2023-02-13T05:36:04;103759.31;;;5.96;92.07
71964;BME280;59834;52.124;5.422;2023-02-13T05:38:31;103759.34;;;5.97;91.71
71964;BME280;59834;52.124;5.422;2023-02-13T05:40:59;103754.16;;;5.97;92.03
71964;BME280;59834;52.124;5.422;2023-02-13T05:43:27;103752.38;;;5.93;92.00
71964;BME280;59834;52.124;5.422;2023-02-13T05:46:05;103761.03;;;5.97;92.13
71964;BME280;59834;52.124;5.422;2023-02-13T05:48:32;103765.41;;;5.98;92.62
71964;BME280;59834;52.124;5.422;2023-02-13T05:50:59;103761.94;;;6.00;91.92
71964;BME280;59834;52.124;5.422;2023-02-13T05:53:25;103754.16;;;6.00;92.31
71964;BME280;59834;52.124;5.422;2023-02-13T05:55:52;103756.72;;;5.99;91.99
71964;BME280;59834;52.124;5.422;2023-02-13T05:58:19;103752.41;;;5.99;92.45
71964;BME280;59834;52.124;5.422;2023-02-13T06:00:46;103760.19;;;5.99;92.44
71964;BME280;59834;52.124;5.422;2023-02-13T06:03:13;103755.88;;;5.98;92.83
71964;BME280;59834;52.124;5.422;2023-02-13T06:05:40;103758.47;;;5.98;92.45
71964;BME280;59834;52.124;5.422;2023-02-13T06:08:06;103759.34;;;6.00;92.34
71964;BME280;59834;52.124;5.422;2023-02-13T06:10:33;103755.00;;;5.99;92.29
71964;BME280;59834;52.124;5.422;2023-02-13T06:12:59;103760.22;;;5.98;92.73
71964;BME280;59834;52.124;5.422;2023-02-13T06:15:26;103763.66;;;5.97;93.09
71964;BME280;59834;52.124;5.422;2023-02-13T06:17:52;103753.28;;;5.98;93.10
71964;BME280;59834;52.124;5.422;2023-02-13T06:20:19;103764.56;;;6.00;92.71
71964;BME280;59834;52.124;5.422;2023-02-13T06:22:49;103758.47;;;6.01;92.95
71964;BME280;59834;52.124;5.422;2023-02-13T06:25:16;103761.09;;;6.04;93.26
71964;BME280;59834;52.124;5.422;2023-02-13T06:27:43;103759.34;;;6.06;92.96
71964;BME280;59834;52.124;5.422;2023-02-13T06:30:10;103762.81;;;6.05;93.04
71964;BME280;59834;52.124;5.422;2023-02-13T06:32:36;103768.91;;;6.07;93.03
71964;BME280;59834;52.124;5.422;2023-02-13T06:35:03;103774.94;;;6.06;93.06
71964;BME280;59834;52.124;5.422;2023-02-13T06:37:31;103768.91;;;6.07;92.62
71964;BME280;59834;52.124;5.422;2023-02-13T06:39:57;103767.13;;;6.06;93.22
71964;BME280;59834;52.124;5.422;2023-02-13T06:42:24;103767.16;;;6.05;93.09
71964;BME280;59834;52.124;5.422;2023-02-13T06:44:51;103769.75;;;6.06;93.05
71964;BME280;59834;52.124;5.422;2023-02-13T06:47:18;103769.75;;;6.06;93.05
71964;BME280;59834;52.124;5.422;2023-02-13T06:49:44;103772.38;;;6.08;93.23
71964;BME280;59834;52.124;5.422;2023-02-13T06:52:10;103766.31;;;6.07;93.36
71964;BME280;59834;52.124;5.422;2023-02-13T06:54:37;103778.44;;;6.08;92.72
71964;BME280;59834;52.124;5.422;2023-02-13T06:57:13;103773.22;;;6.08;93.16
71964;BME280;59834;52.124;5.422;2023-02-13T06:59:39;103763.69;;;6.09;93.41
71964;BME280;59834;52.124;5.422;2023-02-13T07:02:08;103773.22;;;6.08;93.11
71964;BME280;59834;52.124;5.422;2023-02-13T07:04:35;103775.81;;;6.08;92.97
71964;BME280;59834;52.124;5.422;2023-02-13T07:07:02;103781.00;;;6.07;93.51
71964;BME280;59834;52.124;5.422;2023-02-13T07:09:30;103782.75;;;6.08;93.18
71964;BME280;59834;52.124;5.422;2023-02-13T07:11:57;103789.69;;;6.09;93.58
71964;BME280;59834;52.124;5.422;2023-02-13T07:14:23;103786.22;;;6.10;93.44
71964;BME280;59834;52.124;5.422;2023-02-13T07:16:50;103786.22;;;6.10;93.67
71964;BME280;59834;52.124;5.422;2023-02-13T07:19:16;103790.56;;;6.12;93.90
71964;BME280;59834;52.124;5.422;2023-02-13T07:21:43;103794.88;;;6.13;93.67
71964;BME280;59834;52.124;5.422;2023-02-13T07:24:09;103790.56;;;6.16;93.62
71964;BME280;59834;52.124;5.422;2023-02-13T07:26:35;103789.72;;;6.20;94.50
71964;BME280;59834;52.124;5.422;2023-02-13T07:29:02;103787.97;;;6.20;93.28
71964;BME280;59834;52.124;5.422;2023-02-13T07:31:37;103780.16;;;6.20;93.43
71964;BME280;59834;52.124;5.422;2023-02-13T07:34:04;103778.47;;;6.21;93.80
71964;BME280;59834;52.124;5.422;2023-02-13T07:36:31;103780.19;;;6.22;93.75
71964;BME280;59834;52.124;5.422;2023-02-13T07:38:57;103777.59;;;6.25;93.98
71964;BME280;59834;52.124;5.422;2023-02-13T07:41:24;103782.78;;;6.25;93.92
71964;BME280;59834;52.124;5.422;2023-02-13T07:43:53;103785.38;;;6.26;94.42
71964;BME280;59834;52.124;5.422;2023-02-13T07:46:20;103781.06;;;6.28;93.95
71964;BME280;59834;52.124;5.422;2023-02-13T07:48:47;103784.53;;;6.30;93.81
71964;BME280;59834;52.124;5.422;2023-02-13T07:51:13;103782.81;;;6.34;94.32
71964;BME280;59834;52.124;5.422;2023-02-13T07:53:41;103786.28;;;6.37;93.73
71964;BME280;59834;52.124;5.422;2023-02-13T07:56:08;103793.22;;;6.42;93.58
71964;BME280;59834;52.124;5.422;2023-02-13T07:58:36;103798.41;;;6.46;93.82
71964;BME280;59834;52.124;5.422;2023-02-13T08:01:07;103793.22;;;6.49;94.01
71964;BME280;59834;52.124;5.422;2023-02-13T08:03:33;103788.03;;;6.52;93.97
71964;BME280;59834;52.124;5.422;2023-02-13T08:06:00;103797.59;;;6.58;93.07
71964;BME280;59834;52.124;5.422;2023-02-13T08:08:27;103800.19;;;6.64;93.61
71964;BME280;59834;52.124;5.422;2023-02-13T08:10:53;103801.91;;;6.68;93.51
71964;BME280;59834;52.124;5.422;2023-02-13T08:13:39;103809.72;;;6.73;93.52
71964;BME280;59834;52.124;5.422;2023-02-13T08:16:06;103809.72;;;6.76;93.00
71964;BME280;59834;52.124;5.422;2023-02-13T08:18:33;103813.22;;;6.78;93.23
71964;BME280;59834;52.124;5.422;2023-02-13T08:21:02;103819.28;;;6.81;93.64
71964;BME280;59834;52.124;5.422;2023-02-13T08:23:29;103819.25;;;6.86;93.15
71964;BME280;59834;52.124;5.422;2023-02-13T08:25:59;103819.25;;;6.91;93.08
71964;BME280;59834;52.124;5.422;2023-02-13T08:28:27;103821.88;;;6.98;92.86
71964;BME280;59834;52.124;5.422;2023-02-13T08:30:54;103817.50;;;7.00;92.80
71964;BME280;59834;52.124;5.422;2023-02-13T08:33:21;103811.44;;;7.07;92.88
71964;BME280;59834;52.124;5.422;2023-02-13T08:35:47;103813.19;;;7.15;92.47
71964;BME280;59834;52.124;5.422;2023-02-13T08:38:14;103821.84;;;7.20;92.33
71964;BME280;59834;52.124;5.422;2023-02-13T08:40:40;103817.50;;;7.25;92.66
71964;BME280;59834;52.124;5.422;2023-02-13T08:43:07;103814.88;;;7.28;92.37
71964;BME280;59834;52.124;5.422;2023-02-13T08:45:34;103812.25;;;7.34;92.05
71964;BME280;59834;52.124;5.422;2023-02-13T08:48:01;103806.16;;;7.40;91.40
71964;BME280;59834;52.124;5.422;2023-02-13T08:50:29;103816.56;;;7.47;92.51
71964;BME280;59834;52.124;5.422;2023-02-13T08:52:57;103814.81;;;7.52;91.65
71964;BME280;59834;52.124;5.422;2023-02-13T08:55:23;103813.94;;;7.58;91.44
71964;BME280;59834;52.124;5.422;2023-02-13T08:57:50;103814.78;;;7.65;90.92
71964;BME280;59834;52.124;5.422;2023-02-13T09:00:18;103813.88;;;7.70;91.35
71964;BME280;59834;52.124;5.422;2023-02-13T09:02:45;103822.56;;;7.78;91.04
71964;BME280;59834;52.124;5.422;2023-02-13T09:05:11;103814.69;;;7.83;90.76
71964;BME280;59834;52.124;5.422;2023-02-13T09:07:38;103812.09;;;7.85;90.65
71964;BME280;59834;52.124;5.422;2023-02-13T09:10:05;103813.81;;;7.89;90.48
71964;BME280;59834;52.124;5.422;2023-02-13T09:12:31;103812.91;;;7.93;90.49
71964;BME280;59834;52.124;5.422;2023-02-13T09:14:58;103817.25;;;7.97;89.63
71964;BME280;59834;52.124;5.422;2023-02-13T09:17:24;103819.03;;;7.92;89.23
71964;BME280;59834;52.124;5.422;2023-02-13T09:19:51;103816.41;;;7.87;90.07
71964;BME280;59834;52.124;5.422;2023-02-13T09:22:17;103815.56;;;7.84;89.87
71964;BME280;59834;52.124;5.422;2023-02-13T09:24:44;103815.56;;;7.85;89.85
71964;BME280;59834;52.124;5.422;2023-02-13T09:27:10;103817.28;;;7.92;89.57
71964;BME280;59834;52.124;5.422;2023-02-13T09:29:36;103810.31;;;7.93;90.11
71964;BME280;59834;52.124;5.422;2023-02-13T09:32:04;103813.75;;;7.98;89.60
71964;BME280;59834;52.124;5.422;2023-02-13T09:34:30;103813.72;;;8.09;89.59
71964;BME280;59834;52.124;5.422;2023-02-13T09:36:57;103808.41;;;8.22;89.78
71964;BME280;59834;52.124;5.422;2023-02-13T09:39:23;103806.63;;;8.29;88.83
71964;BME280;59834;52.124;5.422;2023-02-13T09:41:52;103815.31;;;8.39;88.37
71964;BME280;59834;52.124;5.422;2023-02-13T09:49:57;103809.97;;;8.56;87.47
71964;BME280;59834;52.124;5.422;2023-02-13T09:52:31;103806.44;;;8.60;87.04
71964;BME280;59834;52.124;5.422;2023-02-13T09:54:59;103800.31;;;8.64;87.20
71964;BME280;59834;52.124;5.422;2023-02-13T09:57:34;103803.78;;;8.66;86.50
71964;BME280;59834;52.124;5.422;2023-02-13T10:00:05;103806.38;;;8.67;85.92
71964;BME280;59834;52.124;5.422;2023-02-13T10:02:52;103811.47;;;8.83;85.98
71964;BME280;59834;52.124;5.422;2023-02-13T10:05:47;103812.28;;;8.89;85.09
71964;BME280;59834;52.124;5.422;2023-02-13T10:08:38;103808.88;;;8.81;84.97
71964;BME280;59834;52.124;5.422;2023-02-13T10:14:15;103810.56;;;8.87;85.12
71964;BME280;59834;52.124;5.422;2023-02-13T10:19:51;103806.19;;;8.87;84.83
71964;BME280;59834;52.124;5.422;2023-02-13T10:22:25;103801.88;;;8.86;84.54
71964;BME280;59834;52.124;5.422;2023-02-13T10:25:03;103810.63;;;8.78;84.42
71964;BME280;59834;52.124;5.422;2023-02-13T10:27:34;103807.91;;;8.93;84.55
71964;BME280;59834;52.124;5.422;2023-02-13T10:30:20;103807.81;;;9.01;83.86
71964;BME280;59834;52.124;5.422;2023-02-13T10:36:00;103799.97;;;9.04;84.12
71964;BME280;59834;52.124;5.422;2023-02-13T10:38:32;103796.47;;;9.06;83.67
71964;BME280;59834;52.124;5.422;2023-02-13T10:41:03;103792.97;;;9.09;83.07
71964;BME280;59834;52.124;5.422;2023-02-13T10:44:19;103787.75;;;9.06;83.29
71964;BME280;59834;52.124;5.422;2023-02-13T10:46:55;103786.00;;;9.05;82.86
71964;BME280;59834;52.124;5.422;2023-02-13T10:55:13;103788.63;;;9.05;84.16
71964;BME280;59834;52.124;5.422;2023-02-13T10:57:52;103787.81;;;9.00;83.09
71964;BME280;59834;52.124;5.422;2023-02-13T11:00:46;103793.06;;;8.96;83.83
71964;BME280;59834;52.124;5.422;2023-02-13T11:03:19;103786.16;;;8.92;83.61
71964;BME280;59834;52.124;5.422;2023-02-13T11:05:48;103782.63;;;8.93;84.33
71964;BME280;59834;52.124;5.422;2023-02-13T11:08:18;103777.38;;;9.00;83.86
71964;BME280;59834;52.124;5.422;2023-02-13T11:10:45;103775.56;;;9.06;83.49
71964;BME280;59834;52.124;5.422;2023-02-13T11:13:23;103770.28;;;9.11;84.07
71964;BME280;59834;52.124;5.422;2023-02-13T11:18:32;103770.97;;;9.25;82.70
71964;BME280;59834;52.124;5.422;2023-02-13T11:21:06;103768.34;;;9.28;83.25
71964;BME280;59834;52.124;5.422;2023-02-13T11:23:39;103767.41;;;9.34;83.12
71964;BME280;59834;52.124;5.422;2023-02-13T11:26:11;103756.09;;;9.33;83.05
71964;BME280;59834;52.124;5.422;2023-02-13T11:28:47;103755.28;;;9.27;83.43
71964;BME280;59834;52.124;5.422;2023-02-13T11:31:28;103753.53;;;9.27;82.82
71964;BME280;59834;52.124;5.422;2023-02-13T11:33:57;103763.00;;;9.37;83.01
71964;BME280;59834;52.124;5.422;2023-02-13T11:36:30;103753.28;;;9.49;81.99
71964;BME280;59834;52.124;5.422;2023-02-13T11:39:05;103754.19;;;9.44;81.01
71964;BME280;59834;52.124;5.422;2023-02-13T11:41:41;103747.16;;;9.53;81.70
71964;BME280;59834;52.124;5.422;2023-02-13T11:44:28;103750.78;;;9.39;81.81
71964;BME280;59834;52.124;5.422;2023-02-13T11:47:00;103751.00;;;9.21;82.70
71964;BME280;59834;52.124;5.422;2023-02-13T11:49:36;103736.91;;;9.34;82.79
71964;BME280;59834;52.124;5.422;2023-02-13T11:52:06;103738.50;;;9.46;82.24
71964;BME280;59834;52.124;5.422;2023-02-13T11:54:39;103738.44;;;9.51;81.57
71964;BME280;59834;52.124;5.422;2023-02-13T11:57:27;103739.47;;;9.39;82.00
71964;BME280;59834;52.124;5.422;2023-02-13T11:59:55;103731.56;;;9.43;81.40
71964;BME280;59834;52.124;5.422;2023-02-13T12:02:27;103723.53;;;9.57;80.91
71964;BME280;59834;52.124;5.422;2023-02-13T12:05:18;103713.81;;;9.67;80.79
71964;BME280;59834;52.124;5.422;2023-02-13T12:07:46;103715.44;;;9.77;80.81
71964;BME280;59834;52.124;5.422;2023-02-13T12:10:25;103714.56;;;9.77;79.60
71964;BME280;59834;52.124;5.422;2023-02-13T12:15:36;103712.84;;;9.74;79.77
71964;BME280;59834;52.124;5.422;2023-02-13T12:20:52;103709.97;;;9.93;79.63
71964;BME280;59834;52.124;5.422;2023-02-13T12:32:46;103696.47;;;10.20;79.20
71964;BME280;59834;52.124;5.422;2023-02-13T12:35:20;103704.25;;;10.26;79.06
71964;BME280;59834;52.124;5.422;2023-02-13T12:38:02;103705.06;;;10.30;78.20
71964;BME280;59834;52.124;5.422;2023-02-13T12:43:26;103701.63;;;10.26;78.55
71964;BME280;59834;52.124;5.422;2023-02-13T12:48:41;103693.69;;;10.29;77.38
71964;BME280;59834;52.124;5.422;2023-02-13T12:51:36;103694.56;;;10.31;78.99
71964;BME280;59834;52.124;5.422;2023-02-13T12:56:53;103690.22;;;10.30;77.50
71964;BME280;59834;52.124;5.422;2023-02-13T12:59:37;103685.88;;;10.28;77.68
71964;BME280;59834;52.124;5.422;2023-02-13T13:21:50;103666.50;;;10.38;77.79
71964;BME280;59834;52.124;5.422;2023-02-13T13:27:10;103649.78;;;10.47;76.93
71964;BME280;59834;52.124;5.422;2023-02-13T13:29:44;103643.59;;;10.51;77.41
71964;BME280;59834;52.124;5.422;2023-02-13T13:32:16;103645.41;;;10.46;76.27
71964;BME280;59834;52.124;5.422;2023-02-13T13:34:44;103640.97;;;10.49;77.16
71964;BME280;59834;52.124;5.422;2023-02-13T13:40:04;103632.28;;;10.49;76.63
71964;BME280;59834;52.124;5.422;2023-02-13T13:42:42;103631.31;;;10.53;76.30
71964;BME280;59834;52.124;5.422;2023-02-13T13:47:53;103632.22;;;10.52;76.62
71964;BME280;59834;52.124;5.422;2023-02-13T13:50:27;103624.47;;;10.47;76.40
71964;BME280;59834;52.124;5.422;2023-02-13T13:53:11;103626.03;;;10.56;76.79
71964;BME280;59834;52.124;5.422;2023-02-13T13:55:59;103627.72;;;10.58;76.21
71964;BME280;59834;52.124;5.422;2023-02-13T13:58:45;103619.88;;;10.58;76.94
71964;BME280;59834;52.124;5.422;2023-02-13T14:01:27;103616.34;;;10.59;76.68
71964;BME280;59834;52.124;5.422;2023-02-13T14:09:40;103618.97;;;10.59;76.67
71964;BME280;59834;52.124;5.422;2023-02-13T14:14:56;103609.50;;;10.52;77.27
71964;BME280;59834;52.124;5.422;2023-02-13T14:22:56;103613.78;;;10.58;76.14
71964;BME280;59834;52.124;5.422;2023-02-13T14:25:30;103599.03;;;10.54;76.47
71964;BME280;59834;52.124;5.422;2023-02-13T14:28:02;103604.19;;;10.57;76.94
71964;BME280;59834;52.124;5.422;2023-02-13T14:30:32;103599.81;;;10.57;76.49
71964;BME280;59834;52.124;5.422;2023-02-13T14:33:03;103607.69;;;10.56;76.70
71964;BME280;59834;52.124;5.422;2023-02-13T14:35:33;103599.88;;;10.54;76.08
71964;BME280;59834;52.124;5.422;2023-02-13T14:38:04;103597.28;;;10.53;76.47
71964;BME280;59834;52.124;5.422;2023-02-13T14:40:50;103605.97;;;10.55;77.46
71964;BME280;59834;52.124;5.422;2023-02-13T14:43:20;103605.91;;;10.58;76.94
71964;BME280;59834;52.124;5.422;2023-02-13T14:45:57;103600.72;;;10.56;76.75
71964;BME280;59834;52.124;5.422;2023-02-13T14:48:33;103595.56;;;10.52;77.25
71964;BME280;59834;52.124;5.422;2023-02-13T14:51:00;103594.81;;;10.45;76.58
71964;BME280;59834;52.124;5.422;2023-02-13T14:53:51;103592.22;;;10.44;77.38
71964;BME280;59834;52.124;5.422;2023-02-13T14:56:21;103594.84;;;10.44;77.63
71964;BME280;59834;52.124;5.422;2023-02-13T14:59:15;103593.16;;;10.41;77.59
71964;BME280;59834;52.124;5.422;2023-02-13T15:04:47;103581.81;;;10.39;78.25
71964;BME280;59834;52.124;5.422;2023-02-13T15:07:20;103588.81;;;10.38;77.67
71964;BME280;59834;52.124;5.422;2023-02-13T15:09:52;103582.72;;;10.40;78.68
71964;BME280;59834;52.124;5.422;2023-02-13T15:12:25;103591.44;;;10.40;78.10
71964;BME280;59834;52.124;5.422;2023-02-13T15:14:53;103590.63;;;10.36;78.35
71964;BME280;59834;52.124;5.422;2023-02-13T15:17:22;103588.13;;;10.30;78.49
71964;BME280;59834;52.124;5.422;2023-02-13T15:19:52;103584.69;;;10.27;78.17
71964;BME280;59834;52.124;5.422;2023-02-13T15:22:35;103593.41;;;10.26;79.14
71964;BME280;59834;52.124;5.422;2023-02-13T15:25:02;103589.94;;;10.24;78.88
71964;BME280;59834;52.124;5.422;2023-02-13T15:27:31;103591.75;;;10.20;79.48
71964;BME280;59834;52.124;5.422;2023-02-13T15:32:34;103587.53;;;10.13;79.35